Time;durP1;ratioP1;P1;durP2;ratioP2;P2;SDS_P1;SDS_P2;PMS_P1;PMS_P2;Temp;Humidity;BMP_temperature;BMP_pressure;BME280_temperature;BME280_humidity;BME280_pressure;Samples;Min_cycle;Max_cycle;Signal;HPM_P1;HPM_P2
2021/07/24 00:02:22;;;;;;;17.90;11.40;;;;;;;16.20;77.55;101507.59;5072882;28;20032;-63
2021/07/24 00:04:47;;;;;;;24.27;11.32;;;;;;;16.24;77.45;101508.28;5073684;28;20130;-63
2021/07/24 00:07:12;;;;;;;19.88;11.48;;;;;;;16.17;77.36;101502.44;5072966;28;20025;-63
2021/07/24 00:09:38;;;;;;;18.05;11.07;;;;;;;16.14;78.08;101498.16;5073441;28;20035;-64
2021/07/24 00:12:04;;;;;;;17.45;11.52;;;;;;;16.14;78.00;101498.16;5072992;28;20024;-62
2021/07/24 00:14:29;;;;;;;16.67;11.13;;;;;;;16.11;78.12;101490.28;5073566;28;20032;-63
2021/07/24 00:16:54;;;;;;;16.63;10.40;;;;;;;16.11;77.87;101484.94;5072381;28;20032;-63
2021/07/24 00:19:19;;;;;;;22.77;12.55;;;;;;;16.08;77.96;101478.94;5073037;28;20057;-64
2021/07/24 00:21:45;;;;;;;22.35;12.02;;;;;;;16.05;77.71;101479.97;5073401;28;20094;-64
2021/07/24 00:24:10;;;;;;;19.13;11.50;;;;;;;16.05;77.83;101482.66;5073007;28;20099;-63
2021/07/24 00:26:36;;;;;;;21.33;12.05;;;;;;;16.07;78.13;101469.19;5072169;28;20772;-63
2021/07/24 00:29:05;;;;;;;16.30;11.63;;;;;;;16.04;78.59;101467.56;5072666;28;20481;-63
2021/07/24 00:31:31;;;;;;;18.67;11.85;;;;;;;16.05;78.32;101464.81;5072364;28;20482;-64
2021/07/24 00:33:56;;;;;;;18.73;11.40;;;;;;;16.06;78.24;101468.31;5072863;28;20163;-62
2021/07/24 00:36:21;;;;;;;18.60;11.55;;;;;;;16.09;78.08;101470.84;5073116;28;20107;-63
2021/07/24 00:38:46;;;;;;;18.00;10.93;;;;;;;16.09;77.64;101468.16;5072284;28;20035;-63
2021/07/24 00:41:26;;;;;;;19.65;10.55;;;;;;;16.14;77.30;101457.19;5072488;28;20417;-63
2021/07/24 00:43:53;;;;;;;18.88;11.38;;;;;;;16.11;77.06;101457.38;5072757;28;20028;-63
2021/07/24 00:46:22;;;;;;;20.42;12.23;;;;;;;16.09;77.44;101452.13;5072424;28;20020;-62
2021/07/24 00:48:48;;;;;;;19.38;11.32;;;;;;;16.08;77.77;101437.03;5071855;28;20452;-63
2021/07/24 00:51:21;;;;;;;19.52;10.98;;;;;;;16.08;77.46;101433.53;5072712;28;20059;-63
2021/07/24 00:53:46;;;;;;;18.92;10.20;;;;;;;16.07;77.17;101429.13;5072719;28;20024;-64
2021/07/24 00:56:12;;;;;;;17.77;10.45;;;;;;;16.08;77.11;101426.38;5072514;28;20035;-63
2021/07/24 00:58:37;;;;;;;17.05;10.52;;;;;;;16.07;77.14;101421.13;5072097;28;20432;-62
2021/07/24 01:01:05;;;;;;;18.70;10.82;;;;;;;16.07;77.18;101413.09;5072403;28;20051;-63
2021/07/24 01:03:30;;;;;;;18.67;10.57;;;;;;;16.05;77.03;101413.19;5072188;28;20355;-62
2021/07/24 01:05:57;;;;;;;19.58;11.55;;;;;;;16.08;77.35;101417.50;5072613;28;20031;-62
2021/07/24 01:08:23;;;;;;;17.85;10.48;;;;;;;16.07;77.26;101410.44;5072614;28;20074;-63
2021/07/24 01:10:50;;;;;;;15.80;10.68;;;;;;;16.02;77.07;101392.00;5072384;28;20119;-63
2021/07/24 01:13:17;;;;;;;16.08;10.13;;;;;;;16.08;77.20;101388.13;5072368;28;20020;-62
2021/07/24 01:15:46;;;;;;;16.08;10.02;;;;;;;16.04;76.94;101392.78;5072235;28;20417;-63
2021/07/24 01:18:12;;;;;;;19.83;10.85;;;;;;;15.99;77.17;101392.19;5072117;28;20076;-63
2021/07/24 01:20:39;;;;;;;19.00;10.93;;;;;;;16.01;77.70;101383.13;5071614;28;20060;-64
2021/07/24 01:23:05;;;;;;;16.50;10.70;;;;;;;16.03;77.53;101386.53;5071863;28;20070;-63
2021/07/24 01:25:30;;;;;;;15.48;10.30;;;;;;;16.03;77.35;101388.38;5072281;28;20021;-63
2021/07/24 01:27:55;;;;;;;21.77;11.23;;;;;;;15.98;77.67;101380.63;5072182;28;20151;-62
2021/07/24 01:30:21;;;;;;;17.05;10.25;;;;;;;15.97;77.58;101372.69;5071381;28;20029;-62
2021/07/24 01:32:46;;;;;;;22.15;11.10;;;;;;;15.93;77.63;101364.00;5071920;28;20028;-63
2021/07/24 01:35:12;;;;;;;17.45;10.93;;;;;;;15.95;77.22;101356.78;5072484;28;20107;-62
2021/07/24 01:37:38;;;;;;;18.95;10.68;;;;;;;15.94;77.08;101346.19;5072001;28;20032;-63
2021/07/24 01:40:04;;;;;;;16.13;10.50;;;;;;;15.92;77.12;101334.72;5076327;28;20036;-63
2021/07/24 01:42:30;;;;;;;20.83;11.38;;;;;;;15.91;77.29;101333.88;5075449;28;20032;-63
2021/07/24 01:44:55;;;;;;;19.48;11.70;;;;;;;15.92;77.70;101334.72;5076211;28;20035;-64
2021/07/24 01:47:20;;;;;;;18.27;10.73;;;;;;;15.89;77.13;101335.75;5076215;28;20378;-63
2021/07/24 01:52:51;;;;;;;16.15;10.85;;;;;;;15.81;77.36;101336.22;5074885;28;20111;-62
2021/07/24 01:55:27;;;;;;;16.40;11.07;;;;;;;15.83;77.40;101338.78;5075626;28;20033;-63
2021/07/24 01:57:53;;;;;;;22.50;11.93;;;;;;;15.77;77.61;101329.31;5075536;28;20477;-63
2021/07/24 02:00:19;;;;;;;18.52;11.55;;;;;;;15.77;77.54;101325.78;5076072;28;20067;-63
2021/07/24 02:02:49;;;;;;;17.33;10.82;;;;;;;15.71;77.55;101322.50;5075383;28;20107;-63
2021/07/24 02:05:27;;;;;;;18.58;10.60;;;;;;;15.72;77.26;101310.03;5075596;28;20021;-63
2021/07/24 02:07:53;;;;;;;19.95;11.00;;;;;;;15.70;77.59;101306.59;5075539;28;20119;-63
2021/07/24 02:10:18;;;;;;;22.83;10.80;;;;;;;15.69;77.83;101320.88;5075549;28;20024;-63
2021/07/24 02:12:44;;;;;;;23.45;12.23;;;;;;;15.67;77.52;101310.31;5075219;28;20036;-62
2021/07/24 02:15:10;;;;;;;18.92;11.30;;;;;;;15.64;77.75;101305.16;5075241;28;20540;-64
2021/07/24 02:17:38;;;;;;;19.73;10.65;;;;;;;15.63;77.62;101303.44;5075253;28;20045;-64
2021/07/24 02:20:04;;;;;;;23.05;11.93;;;;;;;15.63;77.63;101311.44;5075255;28;20119;-63
2021/07/24 02:22:30;;;;;;;18.95;11.13;;;;;;;15.61;77.58;101307.13;5074888;28;20035;-61
2021/07/24 02:24:55;;;;;;;19.45;11.95;;;;;;;15.60;77.73;101313.41;5075084;28;20374;-63
2021/07/24 02:27:20;;;;;;;24.52;12.15;;;;;;;15.56;78.06;101315.41;5075279;28;20028;-62
2021/07/24 02:29:46;;;;;;;20.95;12.00;;;;;;;15.53;78.08;101313.78;5075353;28;20466;-63
2021/07/24 02:32:11;;;;;;;20.55;11.63;;;;;;;15.50;78.34;101303.28;5075267;28;20469;-63
2021/07/24 02:34:36;;;;;;;22.70;12.35;;;;;;;15.50;78.90;101294.41;5074042;28;20024;-62
2021/07/24 02:37:02;;;;;;;23.80;11.95;;;;;;;15.49;78.45;101287.38;5075025;28;20029;-63
2021/07/24 02:39:27;;;;;;;20.50;12.38;;;;;;;15.44;78.47;101284.97;5075150;28;20029;-64
2021/07/24 02:41:52;;;;;;;19.05;12.13;;;;;;;15.40;78.83;101286.09;5074948;28;20150;-63
2021/07/24 02:44:18;;;;;;;20.30;12.27;;;;;;;15.37;79.45;101276.47;5074698;28;20327;-63
2021/07/24 02:46:43;;;;;;;23.58;12.18;;;;;;;15.38;79.02;101271.97;5074527;28;20393;-65
2021/07/24 02:49:09;;;;;;;21.50;12.20;;;;;;;15.34;79.15;101270.44;5074785;28;20028;-63
2021/07/24 02:51:34;;;;;;;21.50;12.52;;;;;;;15.31;79.33;101265.28;5074282;28;20029;-63
2021/07/24 02:54:00;;;;;;;22.70;12.52;;;;;;;15.29;79.71;101275.19;5074960;28;20556;-63
2021/07/24 02:56:25;;;;;;;20.42;12.63;;;;;;;15.29;79.63;101285.84;5073949;28;20036;-63
2021/07/24 02:58:51;;;;;;;25.05;12.48;;;;;;;15.25;79.80;101285.16;5074748;28;20027;-63
2021/07/24 03:01:16;;;;;;;20.92;13.35;;;;;;;15.20;80.12;101280.06;5074605;28;20373;-63
2021/07/24 03:03:41;;;;;;;22.33;12.85;;;;;;;15.21;79.82;101256.94;5075067;28;20104;-63
2021/07/24 03:06:06;;;;;;;21.90;13.25;;;;;;;15.14;80.27;101247.56;5074164;28;20035;-63
2021/07/24 03:08:32;;;;;;;21.63;13.07;;;;;;;15.13;80.36;101228.03;5074374;28;20116;-63
2021/07/24 03:10:58;;;;;;;24.23;13.27;;;;;;;15.13;80.22;101221.84;5074487;28;20031;-63
2021/07/24 03:13:23;;;;;;;21.80;13.05;;;;;;;15.13;80.50;101211.16;5074443;28;20028;-63
2021/07/24 03:15:49;;;;;;;19.02;12.30;;;;;;;15.08;80.38;101192.78;5073850;28;20392;-63
2021/07/24 03:18:14;;;;;;;22.02;12.57;;;;;;;15.05;80.54;101190.28;5073980;28;20051;-64
2021/07/24 03:20:39;;;;;;;22.92;13.32;;;;;;;15.04;80.52;101205.44;5074277;28;20066;-63
2021/07/24 03:23:05;;;;;;;20.88;13.05;;;;;;;15.04;80.98;101217.91;5074302;28;20496;-63
2021/07/24 03:25:30;;;;;;;21.17;13.05;;;;;;;14.98;80.81;101203.09;5073870;28;20042;-62
2021/07/24 03:27:55;;;;;;;25.70;13.55;;;;;;;14.94;80.99;101206.06;5072477;28;20025;-63
2021/07/24 03:30:21;;;;;;;20.98;13.75;;;;;;;14.94;80.97;101198.91;5074227;28;20035;-63
2021/07/24 03:32:46;;;;;;;22.60;13.20;;;;;;;14.92;80.96;101211.47;5074367;28;20086;-64
2021/07/24 03:35:12;;;;;;;20.63;12.88;;;;;;;14.93;81.04;101221.19;5074131;28;20378;-63
2021/07/24 03:37:37;;;;;;;23.90;12.95;;;;;;;14.95;80.84;101218.41;5073468;28;20039;-63
2021/07/24 03:40:03;;;;;;;24.10;13.63;;;;;;;14.93;81.05;101221.19;5278903;22;20013;-61
2021/07/24 03:42:29;;;;;;;27.58;13.68;;;;;;;14.91;81.03;101220.41;5072737;28;20082;-64
2021/07/24 03:44:54;;;;;;;25.70;12.82;;;;;;;14.87;81.13;101208.19;5073546;28;20362;-62
2021/07/24 03:47:19;;;;;;;22.10;12.20;;;;;;;14.90;81.09;101200.03;5073620;28;20389;-63
2021/07/24 03:49:44;;;;;;;24.27;13.32;;;;;;;14.88;81.10;101207.25;5073994;28;20047;-63
2021/07/24 03:52:10;;;;;;;23.15;13.45;;;;;;;14.87;81.05;101198.41;5073284;28;20111;-62
2021/07/24 03:54:35;;;;;;;23.85;12.43;;;;;;;14.87;81.05;101200.19;5073620;28;20104;-63
2021/07/24 03:57:00;;;;;;;22.52;13.10;;;;;;;14.84;81.09;101193.22;5072652;28;20037;-63
2021/07/24 03:59:26;;;;;;;22.25;12.43;;;;;;;14.88;81.68;101188.59;5073184;28;20071;-64
2021/07/24 04:01:54;;;;;;;24.10;12.75;;;;;;;14.89;81.00;101184.97;5072680;28;20048;-64
2021/07/24 04:04:19;;;;;;;23.55;13.63;;;;;;;14.93;80.98;101194.53;5073130;28;20024;-64
2021/07/24 04:06:45;;;;;;;25.40;13.30;;;;;;;14.93;80.96;101197.19;5073024;28;20042;-63
2021/07/24 04:09:11;;;;;;;23.52;12.65;;;;;;;15.00;80.64;101201.22;5073082;28;20509;-63
2021/07/24 04:11:36;;;;;;;22.08;11.90;;;;;;;15.05;80.40;101188.47;5072635;28;20036;-63
2021/07/24 04:14:03;;;;;;;24.08;12.77;;;;;;;15.06;80.41;101208.00;5073274;28;20032;-63
2021/07/24 04:16:30;;;;;;;22.77;12.30;;;;;;;15.08;80.42;101211.44;5072108;28;20029;-64
2021/07/24 04:18:55;;;;;;;22.77;12.20;;;;;;;15.12;80.41;101207.66;5073543;28;20025;-63
2021/07/24 04:21:20;;;;;;;20.38;12.30;;;;;;;15.18;80.08;101217.09;5072647;28;20074;-63
2021/07/24 04:23:46;;;;;;;21.80;12.23;;;;;;;15.26;80.18;101228.19;5073187;28;20060;-63
2021/07/24 04:26:11;;;;;;;23.05;12.55;;;;;;;15.31;79.49;101222.59;5072850;28;20466;-63
2021/07/24 04:28:36;;;;;;;20.80;12.30;;;;;;;15.32;80.09;101221.63;5072846;28;20107;-63
2021/07/24 04:31:02;;;;;;;21.00;11.85;;;;;;;15.37;79.49;101230.22;5072701;28;20482;-63
2021/07/24 04:33:28;;;;;;;23.60;12.65;;;;;;;15.42;79.58;101241.47;5072825;28;20020;-63
2021/07/24 04:35:53;;;;;;;19.50;11.68;;;;;;;15.56;79.04;101251.34;5073188;28;20024;-63
2021/07/24 04:38:18;;;;;;;19.67;11.88;;;;;;;15.64;78.68;101253.56;5072498;28;20031;-63
2021/07/24 04:40:45;;;;;;;18.70;11.55;;;;;;;15.68;78.66;101255.97;5072299;28;20458;-63
2021/07/24 04:43:10;;;;;;;21.90;12.07;;;;;;;15.60;78.74;101252.03;5072547;28;20588;-64
2021/07/24 04:45:43;;;;;;;21.38;12.40;;;;;;;15.47;79.15;101230.53;5072783;28;20119;-64
2021/07/24 04:48:09;;;;;;;20.35;11.95;;;;;;;15.40;79.50;101217.56;5072824;28;20036;-63
2021/07/24 04:50:38;;;;;;;22.30;12.20;;;;;;;15.36;79.46;101225.84;5071125;28;20470;-63
2021/07/24 04:53:04;;;;;;;20.23;11.93;;;;;;;15.30;79.61;101211.03;5072034;28;20025;-63
2021/07/24 04:55:30;;;;;;;19.27;11.80;;;;;;;15.33;79.69;101204.66;5072458;28;20112;-63
2021/07/24 04:57:55;;;;;;;18.58;11.52;;;;;;;15.37;79.48;101200.84;5072586;28;20016;-64
2021/07/24 05:00:21;;;;;;;22.25;12.07;;;;;;;15.40;79.88;101206.88;5071651;28;20098;-63
2021/07/24 05:02:46;;;;;;;18.70;11.43;;;;;;;15.46;79.31;101199.47;5072241;28;20477;-63
2021/07/24 05:05:12;;;;;;;17.63;10.23;;;;;;;15.53;78.92;101191.00;5072306;28;20025;-63
2021/07/24 05:07:38;;;;;;;19.17;10.88;;;;;;;15.71;77.99;101205.03;5072475;28;20059;-63
2021/07/24 05:10:08;;;;;;;19.45;10.73;;;;;;;15.82;77.94;101208.88;5072193;28;20052;-63
2021/07/24 05:12:34;;;;;;;17.67;10.43;;;;;;;15.87;77.84;101205.00;5071742;28;20027;-63
2021/07/24 05:14:59;;;;;;;20.88;11.73;;;;;;;15.87;77.70;101177.44;5072181;28;20017;-64
2021/07/24 05:17:24;;;;;;;18.42;11.13;;;;;;;15.97;77.61;101201.75;5072223;28;20039;-63
2021/07/24 05:19:49;;;;;;;18.90;10.55;;;;;;;16.16;76.96;101210.38;5072304;28;20533;-63
2021/07/24 05:22:15;;;;;;;18.17;10.85;;;;;;;16.29;76.28;101197.09;5071729;28;20162;-63
2021/07/24 05:24:44;;;;;;;19.17;10.50;;;;;;;16.41;75.06;101191.91;5072145;28;20032;-63
2021/07/24 05:27:10;;;;;;;16.30;10.27;;;;;;;16.48;74.90;101198.56;5072172;28;20035;-63
2021/07/24 05:29:35;;;;;;;20.48;11.18;;;;;;;16.54;74.90;101187.50;5072381;28;20036;-63
2021/07/24 05:32:01;;;;;;;18.15;10.18;;;;;;;16.52;74.84;101162.66;5071823;28;20107;-63
2021/07/24 05:34:26;;;;;;;19.15;11.23;;;;;;;16.53;74.80;101167.94;5072117;28;20032;-63
2021/07/24 05:36:52;;;;;;;15.80;10.10;;;;;;;16.69;74.14;101172.28;5053761;28;20124;-63
2021/07/24 05:39:17;;;;;;;19.27;11.18;;;;;;;16.62;74.60;101177.16;5071698;28;20059;-64
2021/07/24 05:41:43;;;;;;;19.05;10.25;;;;;;;16.74;74.79;101183.53;5070887;28;20485;-64
2021/07/24 05:44:10;;;;;;;16.55;9.90;;;;;;;16.88;73.51;101180.78;5071681;28;20441;-63
2021/07/24 05:46:35;;;;;;;16.65;10.70;;;;;;;16.94;73.69;101184.91;5071838;28;20032;-63
2021/07/24 05:49:00;;;;;;;17.10;10.23;;;;;;;16.95;73.73;101165.22;5071775;28;20033;-63
2021/07/24 05:51:26;;;;;;;18.60;9.98;;;;;;;17.01;72.77;101167.50;5072244;28;20103;-63
2021/07/24 05:53:51;;;;;;;16.33;10.35;;;;;;;16.96;72.97;101152.72;5064911;28;20024;-64
2021/07/24 05:56:17;;;;;;;18.30;10.68;;;;;;;16.99;73.42;101149.81;5065829;28;20531;-63
2021/07/24 05:58:42;;;;;;;20.92;11.35;;;;;;;17.00;72.91;101147.03;5068330;28;20037;-63
2021/07/24 06:01:11;;;;;;;16.40;10.07;;;;;;;16.88;73.34;101153.19;5068058;28;20032;-64
2021/07/24 06:03:37;;;;;;;41.35;10.50;;;;;;;16.83;73.46;101142.78;5071987;28;20028;-62
2021/07/24 06:06:03;;;;;;;16.40;10.65;;;;;;;16.82;73.02;101132.22;5070960;28;20059;-63
2021/07/24 06:08:29;;;;;;;18.10;10.80;;;;;;;16.68;73.80;101133.13;5071881;28;20032;-64
2021/07/24 06:11:02;;;;;;;20.15;11.32;;;;;;;16.67;74.31;101132.25;5071668;28;20480;-62
2021/07/24 06:13:28;;;;;;;19.73;10.15;;;;;;;16.82;73.85;101126.88;5071235;28;20481;-63
2021/07/24 06:15:53;;;;;;;16.88;10.35;;;;;;;16.99;73.68;101142.66;5071671;28;20060;-64
2021/07/24 06:18:19;;;;;;;17.88;10.65;;;;;;;17.04;72.67;101153.91;5071744;28;20063;-64
2021/07/24 06:20:44;;;;;;;17.35;10.45;;;;;;;17.14;71.84;101164.00;5070628;28;20083;-64
2021/07/24 06:23:10;;;;;;;15.98;9.73;;;;;;;17.24;71.77;101156.19;5070711;28;20500;-64
2021/07/24 06:25:35;;;;;;;18.08;10.73;;;;;;;17.32;71.45;101168.09;5072396;28;20035;-63
2021/07/24 06:28:00;;;;;;;19.60;11.07;;;;;;;17.43;71.41;101170.06;5075473;28;20033;-63
2021/07/24 06:30:27;;;;;;;16.92;10.43;;;;;;;17.58;71.20;101176.16;5075547;28;20028;-63
2021/07/24 06:32:52;;;;;;;15.68;9.95;;;;;;;17.68;71.28;101163.84;5074715;28;20386;-64
2021/07/24 06:35:18;;;;;;;18.90;11.00;;;;;;;17.67;70.88;101159.47;5074994;28;20021;-63
2021/07/24 06:37:43;;;;;;;18.67;11.05;;;;;;;17.58;71.42;101157.41;5074714;28;20032;-63
2021/07/24 06:40:09;;;;;;;14.90;9.45;;;;;;;17.56;71.77;101156.66;5075190;28;20020;-63
2021/07/24 06:42:35;;;;;;;16.02;10.43;;;;;;;17.61;71.55;101148.28;5075314;28;20024;-62
2021/07/24 06:45:00;;;;;;;14.88;10.00;;;;;;;17.69;71.58;101159.34;5074350;28;20074;-63
2021/07/24 06:47:26;;;;;;;16.60;9.82;;;;;;;17.70;71.14;101136.97;5074600;28;20485;-62
2021/07/24 06:49:51;;;;;;;16.10;10.15;;;;;;;17.74;71.30;101142.97;5075014;28;20029;-64
2021/07/24 06:52:16;;;;;;;16.60;10.48;;;;;;;17.95;69.90;101140.59;5071903;28;20025;-63
2021/07/24 06:54:42;;;;;;;20.55;10.30;;;;;;;18.18;68.84;101136.28;5074060;28;20044;-62
2021/07/24 06:57:07;;;;;;;15.43;9.50;;;;;;;18.18;69.73;101134.47;5074886;28;20473;-62
2021/07/24 06:59:32;;;;;;;14.35;9.77;;;;;;;18.24;69.05;101127.78;5065825;28;20049;-63
2021/07/24 07:01:59;;;;;;;16.73;9.63;;;;;;;18.26;69.30;101125.00;5054732;28;20028;-63
2021/07/24 07:04:26;;;;;;;17.20;10.80;;;;;;;18.13;69.08;101120.53;5054805;28;20028;-62
2021/07/24 07:06:51;;;;;;;18.48;10.68;;;;;;;17.99;69.69;101115.31;5054044;28;20447;-64
2021/07/24 07:09:17;;;;;;;14.45;9.68;;;;;;;18.08;69.20;101103.94;5054810;28;20060;-63
2021/07/24 07:11:42;;;;;;;19.58;10.75;;;;;;;18.10;69.74;101107.34;5063363;28;20067;-63
2021/07/24 07:14:07;;;;;;;15.63;10.00;;;;;;;18.12;69.35;101118.81;5074465;28;20112;-63
2021/07/24 07:16:32;;;;;;;15.80;10.65;;;;;;;18.15;68.88;101110.53;5074809;28;20032;-63
2021/07/24 07:18:58;;;;;;;19.40;11.18;;;;;;;18.02;69.82;101102.53;5074668;28;20020;-63
2021/07/24 07:21:23;;;;;;;16.08;10.02;;;;;;;18.22;69.35;101091.34;5073749;28;20021;-63
2021/07/24 07:23:50;;;;;;;13.90;9.60;;;;;;;18.34;68.84;101087.78;5074464;28;20108;-63
2021/07/24 07:26:25;;;;;;;16.45;10.30;;;;;;;18.13;69.86;101084.81;5074401;28;20028;-62
2021/07/24 07:28:50;;;;;;;16.38;11.07;;;;;;;18.22;69.87;101094.88;5073756;28;20028;-64
2021/07/24 07:31:15;;;;;;;17.70;10.95;;;;;;;18.37;69.48;101103.63;5074541;28;20047;-63
2021/07/24 07:33:41;;;;;;;15.10;10.70;;;;;;;18.59;68.30;101092.13;5074153;28;20077;-63
2021/07/24 07:36:06;;;;;;;15.80;10.88;;;;;;;18.62;68.10;101094.63;5054827;28;20405;-62
2021/07/24 07:38:31;;;;;;;17.38;10.98;;;;;;;18.87;67.09;101098.13;5074158;28;20066;-64
2021/07/24 07:40:57;;;;;;;15.65;10.10;;;;;;;18.95;67.72;101103.81;5074212;28;20067;-63
2021/07/24 07:43:23;;;;;;;17.67;9.50;;;;;;;19.25;66.72;101093.50;5073625;28;20488;-63
2021/07/24 07:45:48;;;;;;;15.15;9.27;;;;;;;19.32;65.72;101083.97;5074038;28;20473;-64
2021/07/24 07:48:13;;;;;;;17.15;10.85;;;;;;;19.37;65.87;101084.47;5073434;28;20115;-63
2021/07/24 07:50:41;;;;;;;15.65;10.27;;;;;;;19.40;66.25;101086.94;5073630;28;20020;-63
2021/07/24 07:53:06;;;;;;;16.60;10.38;;;;;;;19.62;65.00;101086.09;5070564;28;21230;-62
2021/07/24 07:55:32;;;;;;;17.08;9.63;;;;;;;19.58;65.21;101084.63;5070872;28;20505;-63
2021/07/24 07:57:57;;;;;;;15.88;10.43;;;;;;;19.53;65.22;101083.25;5072895;28;20414;-63
2021/07/24 08:00:23;;;;;;;18.77;10.75;;;;;;;19.58;65.69;101071.19;5072139;28;20541;-63
2021/07/24 08:02:53;;;;;;;15.23;10.30;;;;;;;19.75;65.21;101075.22;5072627;28;20032;-62
2021/07/24 08:05:18;;;;;;;16.85;10.75;;;;;;;20.12;63.61;101074.97;5070357;28;20028;-63
2021/07/24 08:07:43;;;;;;;15.68;10.45;;;;;;;20.06;64.32;101064.69;5072191;28;20109;-63
2021/07/24 08:10:09;;;;;;;17.73;10.95;;;;;;;20.17;64.03;101071.91;5072614;28;20016;-63
2021/07/24 08:12:34;;;;;;;14.35;9.95;;;;;;;20.30;63.19;101066.38;5072749;28;20489;-62
2021/07/24 08:15:00;;;;;;;16.35;10.63;;;;;;;20.26;63.35;101067.59;5071485;28;20062;-63
2021/07/24 08:17:25;;;;;;;16.33;11.30;;;;;;;19.96;64.04;101063.75;5071955;28;20033;-63
2021/07/24 08:19:51;;;;;;;16.95;11.35;;;;;;;19.93;64.23;101064.84;5072145;28;20033;-62
2021/07/24 08:22:16;;;;;;;16.15;10.77;;;;;;;19.88;64.80;101069.75;5071231;28;20623;-63
2021/07/24 08:24:41;;;;;;;15.32;11.23;;;;;;;19.78;64.80;101066.94;5071692;28;20036;-64
2021/07/24 08:27:07;;;;;;;18.55;11.45;;;;;;;19.74;65.13;101062.75;5071699;28;20032;-62
2021/07/24 08:29:32;;;;;;;17.95;11.05;;;;;;;19.92;65.48;101073.03;5071909;28;20103;-63
2021/07/24 08:31:58;;;;;;;16.40;10.15;;;;;;;20.13;65.66;101065.06;5071890;28;20069;-64
2021/07/24 08:34:24;;;;;;;15.38;10.65;;;;;;;20.37;64.77;101053.25;5071926;28;20024;-63
2021/07/24 08:36:49;;;;;;;14.38;9.88;;;;;;;20.51;64.94;101052.97;5072087;28;20458;-63
2021/07/24 08:39:15;;;;;;;15.93;10.68;;;;;;;20.65;63.92;101053.66;5071794;28;20115;-63
2021/07/24 08:41:43;;;;;;;18.17;11.40;;;;;;;20.44;64.18;101060.69;5071886;28;20051;-63
2021/07/24 08:44:12;;;;;;;16.45;11.50;;;;;;;20.43;65.01;101058.97;5071925;28;20122;-63
2021/07/24 08:46:37;;;;;;;18.23;10.52;;;;;;;20.51;65.25;101060.19;5069741;28;20105;-62
2021/07/24 08:49:04;;;;;;;15.50;11.00;;;;;;;20.43;64.66;101064.34;5070738;28;20044;-63
2021/07/24 08:51:32;;;;;;;16.58;11.10;;;;;;;20.25;65.10;101065.91;5069877;28;20050;-63
2021/07/24 08:53:57;;;;;;;20.92;11.15;;;;;;;20.06;66.44;101066.53;5070020;28;20042;-62
2021/07/24 08:56:25;;;;;;;19.23;11.32;;;;;;;20.03;66.88;101058.75;5068448;28;20024;-63
2021/07/24 08:58:53;;;;;;;17.48;10.77;;;;;;;20.11;66.76;101061.66;5069257;28;20028;-63
2021/07/24 09:01:20;;;;;;;16.83;10.50;;;;;;;20.14;65.99;101056.00;5070218;28;20508;-63
2021/07/24 09:03:46;;;;;;;19.10;11.70;;;;;;;20.12;66.72;101052.59;5070841;28;20450;-63
2021/07/24 09:06:21;;;;;;;15.48;10.15;;;;;;;20.15;67.22;101049.66;5071505;28;20032;-63
2021/07/24 09:08:51;;;;;;;16.67;11.35;;;;;;;20.27;67.78;101053.19;5072530;28;20102;-63
2021/07/24 09:11:17;;;;;;;15.85;10.73;;;;;;;20.39;65.61;101054.00;5071793;28;20032;-63
2021/07/24 09:13:42;;;;;;;18.15;11.65;;;;;;;20.46;68.60;101047.97;5069795;28;20021;-62
2021/07/24 09:16:08;;;;;;;16.60;10.80;;;;;;;20.71;64.68;101045.94;5070174;28;20044;-63
2021/07/24 09:18:34;;;;;;;15.48;10.20;;;;;;;21.06;63.33;101049.28;5071885;28;20023;-63
2021/07/24 09:21:01;;;;;;;16.73;11.10;;;;;;;21.02;63.32;101040.63;5070842;28;20127;-64
2021/07/24 09:23:28;;;;;;;15.82;11.07;;;;;;;21.30;63.29;101046.31;5066841;28;20116;-63
2021/07/24 09:25:54;;;;;;;15.35;10.80;;;;;;;21.74;62.31;101041.56;5072124;28;20047;-63
2021/07/24 09:28:20;;;;;;;15.20;11.27;;;;;;;21.98;59.86;101029.56;5070596;28;20024;-62
2021/07/24 09:30:45;;;;;;;15.88;10.65;;;;;;;22.02;60.28;101031.00;5071006;28;20112;-61
2021/07/24 09:33:12;;;;;;;15.20;11.05;;;;;;;22.07;60.63;101033.25;5071692;28;20440;-61
2021/07/24 09:35:38;;;;;;;17.25;11.70;;;;;;;22.21;59.53;101032.00;5054205;28;20047;-60
2021/07/24 09:38:06;;;;;;;15.30;10.55;;;;;;;22.10;59.89;101036.53;5071195;28;20025;-62
2021/07/24 09:40:34;;;;;;;17.85;11.32;;;;;;;21.99;60.12;101044.75;5071204;28;20051;-63
2021/07/24 09:43:00;;;;;;;17.15;10.70;;;;;;;21.93;61.84;101048.00;5072147;28;20028;-63
2021/07/24 09:45:25;;;;;;;17.52;11.68;;;;;;;22.05;60.14;101038.81;5069440;28;20035;-62
2021/07/24 09:47:52;;;;;;;14.75;10.70;;;;;;;22.22;59.85;101048.06;5071337;28;20098;-63
2021/07/24 09:50:18;;;;;;;18.23;12.27;;;;;;;22.38;58.25;101055.63;5064819;28;20055;-63
2021/07/24 09:52:50;;;;;;;15.38;10.90;;;;;;;22.56;58.68;101049.56;5071259;28;20462;-63
2021/07/24 09:55:23;;;;;;;18.65;12.13;;;;;;;22.61;58.44;101043.69;5072135;28;20025;-63
2021/07/24 09:57:55;;;;;;;16.83;11.50;;;;;;;22.42;59.20;101046.25;5071003;28;20021;-63
2021/07/24 10:00:23;;;;;;;18.77;12.13;;;;;;;22.26;59.69;101040.53;5072018;28;20025;-63
2021/07/24 10:03:01;;;;;;;19.02;11.80;;;;;;;22.02;60.79;101040.91;5075585;28;20038;-63
2021/07/24 10:05:38;;;;;;;18.83;12.35;;;;;;;22.09;60.86;101036.69;5055564;28;20036;-63
2021/07/24 10:08:06;;;;;;;20.55;12.13;;;;;;;22.07;60.52;101041.34;5055387;28;20103;-64
2021/07/24 10:10:35;;;;;;;18.70;12.57;;;;;;;22.00;63.14;101041.06;5068495;28;20074;-63
2021/07/24 10:13:02;;;;;;;18.17;11.68;;;;;;;22.07;60.32;101035.97;5074565;28;20073;-63
2021/07/24 10:15:35;;;;;;;15.15;11.27;;;;;;;22.09;60.26;101036.69;5073139;28;20034;-63
2021/07/24 10:18:01;;;;;;;15.90;11.57;;;;;;;22.08;60.52;101033.16;5073434;28;20029;-63
2021/07/24 10:20:28;;;;;;;16.73;11.70;;;;;;;22.03;61.09;101032.69;5074152;28;20042;-63
2021/07/24 10:22:53;;;;;;;15.13;10.23;;;;;;;22.06;61.35;101034.28;5074943;28;20131;-63
2021/07/24 10:25:20;;;;;;;15.43;11.55;;;;;;;22.05;61.75;101033.41;5074871;28;20489;-63
2021/07/24 10:27:48;;;;;;;17.02;12.30;;;;;;;22.11;61.99;101037.41;5074786;28;20124;-63
2021/07/24 10:30:13;;;;;;;15.90;11.73;;;;;;;22.24;60.63;101037.97;5073658;28;20048;-63
2021/07/24 10:32:42;;;;;;;17.30;11.98;;;;;;;22.28;60.96;101038.56;5074477;28;20048;-63
2021/07/24 10:35:08;;;;;;;20.58;11.80;;;;;;;22.20;61.18;101033.88;5074687;28;20119;-62
2021/07/24 10:37:42;;;;;;;17.25;12.10;;;;;;;22.29;60.97;101037.56;5074630;28;20029;-63
2021/07/24 10:40:24;;;;;;;16.23;12.75;;;;;;;22.37;60.17;101053.09;5074654;28;20043;-63
2021/07/24 10:42:51;;;;;;;20.48;11.77;;;;;;;22.20;62.05;101039.25;5071143;28;20032;-64
2021/07/24 10:45:32;;;;;;;18.00;12.27;;;;;;;22.32;61.16;101039.97;5074284;28;20031;-63
2021/07/24 10:48:12;;;;;;;18.20;12.77;;;;;;;22.42;60.73;101034.63;5074889;28;20038;-63
2021/07/24 10:50:49;;;;;;;17.48;12.25;;;;;;;22.45;63.17;101028.09;5074719;28;20035;-62
2021/07/24 10:53:14;;;;;;;16.08;11.13;;;;;;;22.52;61.38;101026.50;5072338;28;20397;-64
2021/07/24 10:55:41;;;;;;;16.05;11.32;;;;;;;22.68;60.19;101026.78;5074683;28;20021;-63
2021/07/24 10:58:06;;;;;;;17.95;12.02;;;;;;;22.58;59.56;101020.56;5074269;28;20064;-63
2021/07/24 11:00:34;;;;;;;22.00;12.80;;;;;;;22.48;60.36;101017.00;5073091;28;20052;-63
2021/07/24 11:03:00;;;;;;;18.35;12.40;;;;;;;22.55;60.93;101023.56;5074331;28;20031;-62
2021/07/24 11:05:27;;;;;;;17.65;11.73;;;;;;;22.61;60.69;101019.41;5074768;28;20020;-63
2021/07/24 11:07:56;;;;;;;19.85;12.55;;;;;;;22.58;60.32;101007.06;5074377;28;20074;-63
2021/07/24 11:10:22;;;;;;;17.38;12.40;;;;;;;22.71;60.38;101009.47;5074148;28;20066;-63